createdAt,value
2024-03-05T00:02:21.869Z,22.77
2024-03-05T00:04:48.398Z,22.76
2024-03-05T00:07:14.633Z,22.75
2024-03-05T00:09:40.961Z,22.74
2024-03-05T00:12:07.299Z,22.75
2024-03-05T00:14:33.721Z,22.75
2024-03-05T00:17:00.185Z,22.73
2024-03-05T00:19:26.628Z,22.73
2024-03-05T00:21:52.920Z,22.74
2024-03-05T00:24:19.255Z,22.73
2024-03-05T00:26:45.748Z,22.71
2024-03-05T00:29:12.122Z,22.73
2024-03-05T00:31:38.551Z,22.72
2024-03-05T00:34:04.886Z,22.72
2024-03-05T00:36:31.218Z,22.71
2024-03-05T00:38:57.642Z,22.71
2024-03-05T00:41:23.952Z,22.71
2024-03-05T00:43:50.493Z,22.71
2024-03-05T00:46:16.751Z,22.71
2024-03-05T00:48:43.072Z,22.69
2024-03-05T00:51:09.510Z,22.68
2024-03-05T00:53:35.929Z,22.69
2024-03-05T00:56:02.294Z,22.68
2024-03-05T00:58:28.871Z,22.67
2024-03-05T01:00:55.246Z,22.67
2024-03-05T01:03:21.672Z,22.66
2024-03-05T01:05:48.119Z,22.66
2024-03-05T01:08:14.521Z,22.66
2024-03-05T01:10:40.929Z,22.66
2024-03-05T01:13:07.232Z,22.64
2024-03-05T01:15:33.661Z,22.63
2024-03-05T01:18:00.085Z,22.65
2024-03-05T01:20:26.407Z,22.65
2024-03-05T01:22:52.773Z,22.68
2024-03-05T01:25:19.059Z,22.68
2024-03-05T01:27:45.325Z,22.68
2024-03-05T01:30:11.721Z,22.67
2024-03-05T01:32:38.082Z,22.69
2024-03-05T01:35:04.524Z,22.70
2024-03-05T01:37:30.831Z,22.70
2024-03-05T01:39:57.311Z,22.72
2024-03-05T01:42:23.583Z,22.72
2024-03-05T01:44:49.921Z,22.72
2024-03-05T01:47:16.411Z,22.71
2024-03-05T01:49:42.690Z,22.69
2024-03-05T01:52:09.019Z,22.69
2024-03-05T01:54:35.344Z,22.69
2024-03-05T01:57:01.704Z,22.69
2024-03-05T01:59:28.110Z,22.68
2024-03-05T02:01:54.564Z,22.67
2024-03-05T02:04:20.998Z,22.67
2024-03-05T02:06:47.446Z,22.67
2024-03-05T02:09:13.880Z,22.67
2024-03-05T02:11:49.551Z,22.65
2024-03-05T02:14:06.606Z,22.64
2024-03-05T02:16:33.053Z,22.65
2024-03-05T02:18:59.381Z,22.64
2024-03-05T02:21:25.805Z,22.63
2024-03-05T02:23:52.157Z,22.62
2024-03-05T02:26:18.574Z,22.62
2024-03-05T02:28:45.025Z,22.61
2024-03-05T02:31:11.423Z,22.62
2024-03-05T02:33:37.936Z,22.61
2024-03-05T02:36:04.374Z,22.61
2024-03-05T02:38:30.649Z,22.59
2024-03-05T02:40:57.086Z,22.60
2024-03-05T02:43:23.533Z,22.61
2024-03-05T02:45:49.945Z,22.60
2024-03-05T02:48:16.450Z,22.60
2024-03-05T02:50:42.695Z,22.59
2024-03-05T02:53:09.045Z,22.58
2024-03-05T02:55:35.467Z,22.58
2024-03-05T02:58:01.907Z,22.59
2024-03-05T03:00:28.275Z,22.59
2024-03-05T03:02:54.580Z,22.58
2024-03-05T03:05:20.895Z,22.56
2024-03-05T03:07:47.366Z,22.57
2024-03-05T03:10:13.803Z,22.54
2024-03-05T03:12:40.088Z,22.56
2024-03-05T03:15:06.440Z,22.57
2024-03-05T03:17:34.609Z,22.55
2024-03-05T03:19:59.154Z,22.55
2024-03-05T03:22:25.528Z,22.52
2024-03-05T03:24:51.818Z,22.52
2024-03-05T03:27:18.149Z,22.52
2024-03-05T03:29:44.669Z,22.52
2024-03-05T03:32:11.024Z,22.50
2024-03-05T03:34:37.410Z,22.52
2024-03-05T03:37:03.710Z,22.52
2024-03-05T03:39:30.079Z,22.51
2024-03-05T03:41:56.699Z,22.53
2024-03-05T03:44:22.946Z,22.50
2024-03-05T03:46:49.381Z,22.50
2024-03-05T03:49:15.657Z,22.50
2024-03-05T03:51:41.982Z,22.49
2024-03-05T03:54:08.294Z,22.50
2024-03-05T03:56:34.767Z,22.50
2024-03-05T03:59:01.171Z,22.48
2024-03-05T04:01:27.460Z,22.50
2024-03-05T04:03:53.840Z,22.49
2024-03-05T04:06:20.169Z,22.49
2024-03-05T04:08:46.676Z,22.48
2024-03-05T04:11:13.258Z,22.49
2024-03-05T04:13:39.728Z,22.47
2024-03-05T04:16:06.017Z,22.47
2024-03-05T04:18:32.455Z,22.48
2024-03-05T04:20:58.903Z,22.47
2024-03-05T04:23:25.328Z,22.48
2024-03-05T04:25:51.839Z,22.47
2024-03-05T04:28:18.126Z,22.47
2024-03-05T04:30:44.510Z,22.47
2024-03-05T04:33:11.009Z,22.49
2024-03-05T04:35:37.291Z,22.49
2024-03-05T04:38:03.678Z,22.50
2024-03-05T04:40:30.082Z,22.50
2024-03-05T04:42:56.480Z,22.51
2024-03-05T04:45:23.043Z,22.53
2024-03-05T04:47:49.388Z,22.52
2024-03-05T04:50:16.329Z,22.53
2024-03-05T04:52:42.125Z,22.55
2024-03-05T04:55:08.444Z,22.55
2024-03-05T04:57:34.879Z,22.52
2024-03-05T05:00:01.372Z,22.56
2024-03-05T05:02:27.852Z,22.56
2024-03-05T05:04:54.381Z,22.57
2024-03-05T05:07:20.752Z,22.59
2024-03-05T05:09:47.152Z,22.61
2024-03-05T05:12:13.598Z,22.61
2024-03-05T05:14:40.036Z,22.62
2024-03-05T05:17:06.475Z,22.60
2024-03-05T05:19:32.827Z,22.60
2024-03-05T05:21:59.111Z,22.61
2024-03-05T05:24:25.552Z,22.60
2024-03-05T05:26:51.893Z,22.61
2024-03-05T05:29:27.201Z,22.66
2024-03-05T05:31:44.633Z,22.63
2024-03-05T05:34:10.915Z,22.66
2024-03-05T05:36:37.291Z,22.70
2024-03-05T05:39:03.733Z,22.68
2024-03-05T05:41:30.251Z,22.67
2024-03-05T05:43:56.656Z,22.66
2024-03-05T05:46:23.201Z,22.68
2024-03-05T05:48:49.507Z,22.69
2024-03-05T05:51:15.822Z,22.67
2024-03-05T05:53:42.134Z,22.69
2024-03-05T05:56:08.615Z,22.70
2024-03-05T05:58:35.020Z,22.71
2024-03-05T06:01:01.348Z,22.72
2024-03-05T06:03:27.770Z,22.70
2024-03-05T06:05:54.100Z,22.71
2024-03-05T06:08:20.481Z,22.73
2024-03-05T06:10:47.078Z,22.74
2024-03-05T06:13:13.218Z,22.75
2024-03-05T06:15:39.787Z,22.74
2024-03-05T06:18:06.117Z,22.76
2024-03-05T06:20:32.389Z,22.77
2024-03-05T06:22:58.827Z,22.77
2024-03-05T06:25:25.175Z,22.79
2024-03-05T06:27:51.590Z,22.79
2024-03-05T06:30:17.959Z,22.81
2024-03-05T06:32:44.355Z,22.83
2024-03-05T06:35:10.677Z,22.83
2024-03-05T06:37:37.146Z,22.83
2024-03-05T06:40:03.444Z,22.85
2024-03-05T06:42:29.819Z,22.84
2024-03-05T06:44:56.210Z,22.85
2024-03-05T06:47:22.651Z,22.84
2024-03-05T06:49:49.155Z,22.85
2024-03-05T06:52:15.593Z,22.87
2024-03-05T06:54:41.937Z,22.86
2024-03-05T06:57:08.436Z,22.88
2024-03-05T06:59:34.706Z,22.89
2024-03-05T07:02:01.428Z,22.89
2024-03-05T07:04:27.508Z,22.90
2024-03-05T07:06:53.896Z,22.88
2024-03-05T07:09:20.319Z,22.89
2024-03-05T07:11:46.834Z,22.92
2024-03-05T07:14:13.311Z,22.93
2024-03-05T07:16:39.675Z,22.94
2024-03-05T07:19:06.070Z,22.92
2024-03-05T07:21:32.441Z,22.94
2024-03-05T07:23:58.845Z,22.96
2024-03-05T07:26:25.584Z,22.96
2024-03-05T07:28:51.786Z,22.97
2024-03-05T07:31:19.021Z,22.99
2024-03-05T07:33:46.434Z,23.01
2024-03-05T07:36:10.712Z,22.99
2024-03-05T07:38:37.014Z,23.02
2024-03-05T07:41:13.291Z,23.04
2024-03-05T07:43:29.916Z,22.83
2024-03-05T07:45:56.342Z,23.07
2024-03-05T07:48:22.751Z,23.06
2024-03-05T07:50:49.100Z,23.09
2024-03-05T07:53:15.424Z,23.09
2024-03-05T07:55:46.598Z,23.11
2024-03-05T07:58:08.202Z,23.11
2024-03-05T08:00:34.624Z,23.13
2024-03-05T08:03:00.908Z,23.18
2024-03-05T08:05:27.425Z,23.18
2024-03-05T08:07:53.949Z,23.21
2024-03-05T08:10:20.457Z,23.24
2024-03-05T08:12:47.026Z,23.24
2024-03-05T08:15:13.222Z,23.27
2024-03-05T08:17:39.704Z,23.33
2024-03-05T08:20:06.222Z,23.32
2024-03-05T08:22:32.963Z,23.34
2024-03-05T08:24:59.267Z,23.34
2024-03-05T08:27:25.769Z,23.35
2024-03-05T08:29:52.048Z,23.43
2024-03-05T08:32:18.353Z,23.41
2024-03-05T08:34:44.751Z,23.42
2024-03-05T08:37:11.237Z,23.46
2024-03-05T08:39:37.564Z,23.46
2024-03-05T08:42:03.894Z,23.45
2024-03-05T08:44:30.545Z,23.45
2024-03-05T08:46:56.915Z,23.48
2024-03-05T08:49:23.287Z,23.51
2024-03-05T08:51:49.620Z,23.54
2024-03-05T08:54:18.046Z,23.55
2024-03-05T08:56:42.472Z,23.56
2024-03-05T08:59:08.845Z,23.58
2024-03-05T09:01:35.170Z,23.56
2024-03-05T09:04:01.556Z,23.61
2024-03-05T09:06:27.885Z,23.63
2024-03-05T09:08:54.348Z,23.65
2024-03-05T09:11:20.897Z,23.66
2024-03-05T09:13:47.574Z,23.66
2024-03-05T09:16:13.538Z,23.73
2024-03-05T09:18:39.865Z,23.74
2024-03-05T09:21:06.215Z,23.75
2024-03-05T09:23:32.656Z,23.76
2024-03-05T09:25:59.050Z,23.79
2024-03-05T09:28:25.336Z,23.79
2024-03-05T09:30:51.715Z,23.80
2024-03-05T09:33:18.131Z,23.81
2024-03-05T09:35:44.523Z,23.78
2024-03-05T09:38:10.944Z,23.84
2024-03-05T09:40:37.399Z,23.84
2024-03-05T09:43:03.784Z,23.85
2024-03-05T09:45:30.111Z,23.90
2024-03-05T09:47:56.616Z,23.89
2024-03-05T09:50:22.979Z,23.88
2024-03-05T09:52:49.323Z,23.89
2024-03-05T09:55:15.654Z,23.91
2024-03-05T09:57:42.319Z,23.90
2024-03-05T10:00:08.507Z,23.93
2024-03-05T10:02:34.863Z,23.94
2024-03-05T10:05:01.189Z,23.96
2024-03-05T10:07:27.503Z,23.96
2024-03-05T10:09:53.778Z,23.97
2024-03-05T10:12:20.153Z,23.99
2024-03-05T10:14:46.635Z,23.99
2024-03-05T10:17:13.022Z,24.00
2024-03-05T10:19:39.474Z,23.96
2024-03-05T10:22:05.994Z,23.94
2024-03-05T10:24:32.795Z,23.99
2024-03-05T10:26:58.954Z,24.01
2024-03-05T10:29:25.338Z,24.02
2024-03-05T10:31:51.787Z,24.05
2024-03-05T10:34:18.260Z,24.09
2024-03-05T10:36:44.537Z,24.06
2024-03-05T10:39:10.869Z,24.11
2024-03-05T10:41:43.581Z,24.08
2024-03-05T10:44:03.567Z,24.09
2024-03-05T10:46:29.994Z,24.08
2024-03-05T10:48:56.452Z,24.11
2024-03-05T10:51:22.708Z,24.10
2024-03-05T10:53:49.171Z,24.13
2024-03-05T10:56:16.138Z,24.14
2024-03-05T10:58:41.988Z,24.15
2024-03-05T11:01:08.305Z,24.16
2024-03-05T11:03:34.694Z,24.20
2024-03-05T11:06:01.228Z,24.22
2024-03-05T11:08:27.559Z,24.24
2024-03-05T11:10:54.086Z,24.22
2024-03-05T11:13:20.468Z,24.29
2024-03-05T11:15:46.858Z,24.25
2024-03-05T11:18:13.360Z,24.29
2024-03-05T11:20:39.623Z,24.30
2024-03-05T11:23:06.133Z,24.30
2024-03-05T11:25:32.534Z,24.29
2024-03-05T11:27:58.925Z,24.31
2024-03-05T11:30:25.370Z,24.36
2024-03-05T11:32:51.997Z,24.42
2024-03-05T11:35:18.223Z,24.50
2024-03-05T11:37:44.592Z,24.56
2024-03-05T11:40:11.638Z,24.52
2024-03-05T11:42:37.327Z,24.54
2024-03-05T11:45:03.818Z,24.59
2024-03-05T11:47:30.239Z,24.63
2024-03-05T11:49:56.645Z,24.63
2024-03-05T11:52:23.104Z,24.62
2024-03-05T11:54:49.482Z,24.64
2024-03-05T11:57:15.953Z,24.76
2024-03-05T11:59:42.357Z,24.76
2024-03-05T12:02:08.900Z,24.77
2024-03-05T12:04:35.229Z,24.76
2024-03-05T12:07:01.547Z,24.79
2024-03-05T12:09:27.882Z,24.73
2024-03-05T12:11:54.267Z,24.72
2024-03-05T12:14:20.561Z,24.74
2024-03-05T12:16:46.938Z,24.75
2024-03-05T12:19:13.199Z,24.76
2024-03-05T12:21:39.793Z,24.81
2024-03-05T12:24:06.127Z,24.83
2024-03-05T12:26:32.481Z,24.83
2024-03-05T12:28:59.113Z,24.88
2024-03-05T12:31:25.419Z,24.70
2024-03-05T12:33:51.788Z,24.86
2024-03-05T12:36:18.137Z,24.83
2024-03-05T12:38:44.559Z,24.82
2024-03-05T12:41:10.947Z,24.79
2024-03-05T12:43:37.452Z,24.78
2024-03-05T12:46:04.220Z,24.81
2024-03-05T12:48:30.084Z,24.82
2024-03-05T12:50:56.374Z,24.81
2024-03-05T12:53:22.754Z,24.74
2024-03-05T12:55:49.502Z,24.75
2024-03-05T12:58:15.525Z,24.77
2024-03-05T13:00:41.865Z,24.78
2024-03-05T13:03:08.348Z,24.79
2024-03-05T13:05:34.606Z,24.81
2024-03-05T13:08:01.016Z,24.84
2024-03-05T13:10:27.438Z,24.83
2024-03-05T13:12:53.915Z,24.86
2024-03-05T13:15:20.307Z,24.84
2024-03-05T13:17:46.819Z,24.87
2024-03-05T13:20:13.001Z,24.84
2024-03-05T13:22:39.475Z,24.87
2024-03-05T13:25:05.858Z,24.89
2024-03-05T13:27:32.188Z,24.90
2024-03-05T13:30:05.954Z,24.87
2024-03-05T13:32:24.848Z,24.87
2024-03-05T13:34:51.386Z,24.67
2024-03-05T13:37:17.823Z,24.87
2024-03-05T13:39:44.272Z,24.87
2024-03-05T13:42:10.658Z,24.86
2024-03-05T13:44:37.008Z,24.89
2024-03-05T13:47:03.528Z,24.88
2024-03-05T13:49:29.929Z,24.88
2024-03-05T13:51:56.455Z,24.90
2024-03-05T13:54:22.853Z,24.92
2024-03-05T13:56:49.187Z,24.91
2024-03-05T13:59:15.671Z,24.93
2024-03-05T14:01:42.000Z,24.96
2024-03-05T14:04:08.309Z,24.90
2024-03-05T14:06:34.660Z,24.92
2024-03-05T14:09:01.172Z,24.94
2024-03-05T14:11:27.608Z,24.96
2024-03-05T14:13:54.085Z,24.91
2024-03-05T14:16:20.482Z,24.91
2024-03-05T14:18:46.902Z,24.89
2024-03-05T14:21:13.242Z,24.88
2024-03-05T14:23:39.843Z,24.89
2024-03-05T14:26:07.193Z,24.88
2024-03-05T14:28:33.412Z,24.85
2024-03-05T14:30:59.677Z,24.85
2024-03-05T14:33:26.107Z,24.89
2024-03-05T14:35:52.543Z,24.87
2024-03-05T14:38:18.910Z,24.89
2024-03-05T14:40:45.343Z,24.87
2024-03-05T14:43:11.644Z,24.85
2024-03-05T14:45:38.000Z,24.85
2024-03-05T14:48:04.588Z,24.85
2024-03-05T14:50:30.905Z,24.84
2024-03-05T14:52:57.209Z,24.84
2024-03-05T14:55:23.511Z,24.83
2024-03-05T14:57:50.000Z,24.85
2024-03-05T15:00:16.410Z,24.87
2024-03-05T15:02:42.915Z,24.84
2024-03-05T15:05:09.244Z,24.82
2024-03-05T15:07:35.572Z,24.83
2024-03-05T15:10:01.857Z,24.79
2024-03-05T15:12:30.098Z,24.79
2024-03-05T15:14:54.672Z,24.81
2024-03-05T15:17:21.105Z,24.78
2024-03-05T15:19:47.429Z,24.79
2024-03-05T15:22:13.715Z,24.82
2024-03-05T15:24:40.194Z,24.79
2024-03-05T15:27:06.670Z,24.79
2024-03-05T15:29:32.898Z,24.78
2024-03-05T15:31:59.316Z,24.78
2024-03-05T15:34:25.745Z,24.77
2024-03-05T15:36:52.155Z,24.75
2024-03-05T15:39:18.600Z,24.75
2024-03-05T15:41:45.036Z,24.75
2024-03-05T15:44:11.381Z,24.75
2024-03-05T15:46:37.685Z,24.76
2024-03-05T15:49:04.111Z,24.74
2024-03-05T15:51:30.431Z,24.74
2024-03-05T15:53:56.943Z,24.75
2024-03-05T15:56:23.373Z,24.73
2024-03-05T15:58:49.760Z,24.72
2024-03-05T16:01:16.124Z,24.71
2024-03-05T16:03:52.543Z,24.71
2024-03-05T16:06:17.999Z,24.70
2024-03-05T16:08:35.303Z,24.69
2024-03-05T16:11:01.911Z,24.67
2024-03-05T16:13:28.263Z,24.66
2024-03-05T16:15:54.572Z,24.63
2024-03-05T16:18:21.073Z,24.64
2024-03-05T16:20:47.598Z,24.64
2024-03-05T16:23:14.029Z,24.64
2024-03-05T16:25:40.558Z,24.64
2024-03-05T16:28:06.715Z,24.61
2024-03-05T16:30:33.183Z,24.60
2024-03-05T16:32:59.559Z,24.59
2024-03-05T16:35:25.875Z,24.58
2024-03-05T16:37:52.292Z,24.58
2024-03-05T16:40:19.974Z,24.56
2024-03-05T16:42:45.125Z,24.56
2024-03-05T16:45:11.449Z,24.55
2024-03-05T16:47:37.950Z,24.54
2024-03-05T16:50:04.425Z,24.51
2024-03-05T16:52:30.704Z,24.52
2024-03-05T16:54:57.097Z,24.51
2024-03-05T16:57:23.408Z,24.50
2024-03-05T16:59:49.848Z,24.49
2024-03-05T17:02:16.437Z,24.49
2024-03-05T17:04:42.829Z,24.46
2024-03-05T17:07:09.174Z,24.48
2024-03-05T17:09:35.542Z,24.46
2024-03-05T17:12:01.987Z,24.42
2024-03-05T17:14:28.436Z,24.41
2024-03-05T17:16:54.827Z,24.38
2024-03-05T17:19:21.245Z,24.38
2024-03-05T17:21:47.580Z,24.37
2024-03-05T17:24:14.076Z,24.34
2024-03-05T17:26:40.492Z,24.35
2024-03-05T17:29:07.320Z,24.34
2024-03-05T17:31:33.314Z,24.32
2024-03-05T17:33:59.498Z,24.29
2024-03-05T17:36:25.829Z,24.27
2024-03-05T17:38:52.153Z,24.26
2024-03-05T17:41:18.561Z,24.22
2024-03-05T17:43:44.851Z,24.22
2024-03-05T17:46:11.156Z,24.20
2024-03-05T17:48:37.485Z,24.19
2024-03-05T17:51:03.964Z,24.18
2024-03-05T17:53:30.365Z,24.16
2024-03-05T17:55:56.726Z,24.17
2024-03-05T17:58:23.169Z,24.14
2024-03-05T18:00:49.639Z,24.12
2024-03-05T18:03:16.222Z,24.11
2024-03-05T18:05:42.443Z,24.11
2024-03-05T18:08:08.856Z,24.10
2024-03-05T18:10:35.168Z,24.09
2024-03-05T18:13:01.542Z,24.09
2024-03-05T18:15:28.027Z,24.09
2024-03-05T18:17:54.457Z,24.07
2024-03-05T18:20:21.241Z,24.04
2024-03-05T18:22:47.210Z,24.05
2024-03-05T18:25:13.617Z,24.03
2024-03-05T18:27:40.104Z,24.07
2024-03-05T18:30:06.478Z,24.08
2024-03-05T18:32:32.928Z,24.05
2024-03-05T18:34:59.224Z,24.03
2024-03-05T18:37:25.587Z,24.04
2024-03-05T18:39:51.983Z,24.03
2024-03-05T18:42:18.417Z,24.01
2024-03-05T18:44:44.723Z,24.02
2024-03-05T18:47:11.074Z,23.99
2024-03-05T18:49:37.397Z,24.00
2024-03-05T18:52:03.725Z,23.99
2024-03-05T18:54:30.048Z,24.00
2024-03-05T18:56:56.525Z,23.96
2024-03-05T18:59:22.802Z,23.95
2024-03-05T19:01:49.112Z,23.94
2024-03-05T19:04:15.526Z,23.91
2024-03-05T19:06:41.954Z,23.91
2024-03-05T19:09:08.285Z,23.89
2024-03-05T19:11:34.757Z,23.90
2024-03-05T19:14:01.076Z,23.88
2024-03-05T19:16:27.383Z,23.86
2024-03-05T19:18:53.855Z,23.85
2024-03-05T19:21:20.338Z,23.84
2024-03-05T19:23:46.690Z,23.83
2024-03-05T19:26:13.167Z,23.80
2024-03-05T19:28:40.996Z,23.80
2024-03-05T19:31:05.905Z,23.79
2024-03-05T19:33:32.230Z,23.77
2024-03-05T19:35:59.141Z,23.75
2024-03-05T19:38:24.970Z,23.76
2024-03-05T19:40:51.347Z,23.76
2024-03-05T19:43:17.750Z,23.75
2024-03-05T19:45:44.082Z,23.74
2024-03-05T19:48:10.500Z,23.75
2024-03-05T19:50:36.743Z,23.73
2024-03-05T19:53:03.204Z,23.73
2024-03-05T19:55:29.607Z,23.72
2024-03-05T19:57:56.043Z,23.73
2024-03-05T20:00:22.368Z,23.73
2024-03-05T20:02:49.082Z,23.72
2024-03-05T20:05:15.264Z,23.71
2024-03-05T20:07:41.593Z,23.69
2024-03-05T20:10:07.888Z,23.68
2024-03-05T20:12:34.225Z,23.67
2024-03-05T20:15:00.556Z,23.66
2024-03-05T20:17:27.794Z,23.65
2024-03-05T20:19:53.348Z,23.64
2024-03-05T20:22:19.756Z,23.63
2024-03-05T20:24:46.189Z,23.64
2024-03-05T20:27:12.619Z,23.62
2024-03-05T20:29:38.931Z,23.60
2024-03-05T20:32:05.518Z,23.58
2024-03-05T20:34:31.827Z,23.59
2024-03-05T20:36:58.126Z,23.56
2024-03-05T20:39:24.583Z,23.55
2024-03-05T20:41:50.888Z,23.52
2024-03-05T20:44:17.249Z,23.52
2024-03-05T20:46:43.709Z,23.51
2024-03-05T20:49:09.995Z,23.50
2024-03-05T20:51:36.419Z,23.50
2024-03-05T20:54:02.792Z,23.48
2024-03-05T20:56:29.156Z,23.46
2024-03-05T20:58:55.568Z,23.46
2024-03-05T21:01:21.911Z,23.45
2024-03-05T21:03:48.329Z,23.43
2024-03-05T21:06:14.733Z,23.43
2024-03-05T21:08:41.084Z,23.42
2024-03-05T21:11:07.672Z,23.41
2024-03-05T21:13:33.982Z,23.40
2024-03-05T21:16:00.352Z,23.38
2024-03-05T21:18:26.799Z,23.38
2024-03-05T21:20:53.233Z,23.39
2024-03-05T21:23:19.793Z,23.36
2024-03-05T21:26:00.666Z,23.34
2024-03-05T21:28:12.617Z,23.34
2024-03-05T21:30:41.205Z,23.34
2024-03-05T21:33:05.524Z,23.31
2024-03-05T21:35:31.937Z,23.31
2024-03-05T21:37:58.390Z,23.31
2024-03-05T21:40:24.655Z,23.30
2024-03-05T21:42:51.141Z,23.27
2024-03-05T21:45:17.552Z,23.25
2024-03-05T21:47:45.390Z,23.25
2024-03-05T21:50:10.515Z,23.25
2024-03-05T21:52:36.903Z,23.24
2024-03-05T21:55:03.207Z,23.25
2024-03-05T21:57:29.528Z,23.24
2024-03-05T21:59:55.961Z,23.23
2024-03-05T22:02:22.328Z,23.22
2024-03-05T22:04:48.737Z,23.20
2024-03-05T22:07:15.185Z,23.19
2024-03-05T22:09:41.597Z,23.18
2024-03-05T22:12:08.129Z,23.19
2024-03-05T22:17:19.624Z,23.18
2024-03-05T22:19:45.923Z,23.14
2024-03-05T22:22:12.395Z,23.15
2024-03-05T22:24:38.844Z,23.13
2024-03-05T22:27:05.262Z,23.14
2024-03-05T22:29:31.626Z,23.12
2024-03-05T22:31:58.044Z,23.13
2024-03-05T22:34:24.263Z,23.10
2024-03-05T22:36:50.604Z,23.08
2024-03-05T22:39:17.004Z,23.11
2024-03-05T22:41:43.456Z,23.07
2024-03-05T22:44:10.003Z,23.07
2024-03-05T22:46:36.344Z,23.06
2024-03-05T22:49:02.755Z,23.06
2024-03-05T22:51:29.064Z,23.05
2024-03-05T22:53:55.370Z,23.06
2024-03-05T22:56:21.783Z,23.04
2024-03-05T22:58:48.139Z,23.03
2024-03-05T23:01:14.535Z,23.02
2024-03-05T23:03:40.860Z,23.04
2024-03-05T23:06:15.205Z,23.03
2024-03-05T23:08:33.578Z,22.99
2024-03-05T23:11:00.131Z,23.01
2024-03-05T23:13:26.454Z,23.00
2024-03-05T23:15:52.911Z,22.97
2024-03-05T23:18:19.322Z,22.98
2024-03-05T23:20:45.781Z,22.97
2024-03-05T23:23:12.225Z,22.97
2024-03-05T23:25:38.654Z,22.96
2024-03-05T23:28:04.956Z,22.95
2024-03-05T23:30:31.352Z,22.94
2024-03-05T23:32:57.731Z,22.94
2024-03-05T23:35:24.265Z,22.96
2024-03-05T23:37:50.633Z,22.93
2024-03-05T23:40:17.014Z,22.91
2024-03-05T23:42:43.323Z,22.92
2024-03-05T23:45:11.769Z,22.90
2024-03-05T23:47:36.262Z,22.89
2024-03-05T23:52:47.976Z,22.90
2024-03-05T23:55:14.396Z,22.90
2024-03-05T23:57:40.817Z,22.89
